< < Back
Terminal Aerodrome Forecast


Current Version              Previous Versions:   1  2  3  4  5  6  7  8  9  

Terminal Aerodrome Forecast

976
FTUS42 KJAX 301200 AAA
TAFJAX
TAF AMD
KJAX 301258Z 3013/0112 34008KT 5SM BR VCSH OVC005
     FM301600 35006KT P6SM OVC007
     FM301800 36008KT P6SM OVC012
     FM302000 02008KT P6SM SCT012 OVC025
     FM302200 04008KT P6SM SCT025 BKN040
     FM010900 35002KT P6SM SCT250=

Latest METAR

918
SAUS80 KWBC 301500
MTRJAX
METAR KJAX 301456Z 36008KT 9SM OVC005 22/22 A2988 RMK AO2 SLP118
T02220217 53007


USA.gov is the U.S. government's official web portal to all federal, state and local government web resources and services.